sensor_id;sensor_type;location;lat;lon;timestamp;pressure;altitude;pressure_sealevel;temperature;humidity
22181;BME280;11256;50.830;12.834;2023-04-19T00:00:28;98423.22;;;9.13;78.88
22181;BME280;11256;50.830;12.834;2023-04-19T00:05:28;98390.94;;;9.07;79.08
22181;BME280;11256;50.830;12.834;2023-04-19T00:10:29;98413.19;;;9.14;78.99
22181;BME280;11256;50.830;12.834;2023-04-19T00:15:29;98405.06;;;9.14;78.86
22181;BME280;11256;50.830;12.834;2023-04-19T00:20:29;98406.97;;;9.13;78.84
22181;BME280;11256;50.830;12.834;2023-04-19T00:25:30;98392.09;;;9.11;78.66
22181;BME280;11256;50.830;12.834;2023-04-19T00:30:31;98389.88;;;9.08;78.81
22181;BME280;11256;50.830;12.834;2023-04-19T00:35:31;98388.25;;;9.07;79.04
22181;BME280;11256;50.830;12.834;2023-04-19T00:40:32;98381.75;;;9.08;79.04
22181;BME280;11256;50.830;12.834;2023-04-19T00:45:33;98377.19;;;9.08;79.19
22181;BME280;11256;50.830;12.834;2023-04-19T00:50:34;98372.09;;;9.12;79.16
22181;BME280;11256;50.830;12.834;2023-04-19T00:55:38;98358.50;;;9.07;79.36
22181;BME280;11256;50.830;12.834;2023-04-19T01:00:38;98371.56;;;9.15;79.07
22181;BME280;11256;50.830;12.834;2023-04-19T01:05:39;98359.94;;;9.14;79.00
22181;BME280;11256;50.830;12.834;2023-04-19T01:10:39;98352.59;;;9.10;78.94
22181;BME280;11256;50.830;12.834;2023-04-19T01:15:42;98357.75;;;9.11;78.94
22181;BME280;11256;50.830;12.834;2023-04-19T01:20:43;98358.00;;;9.10;79.09
22181;BME280;11256;50.830;12.834;2023-04-19T01:25:43;98349.63;;;9.11;78.87
22181;BME280;11256;50.830;12.834;2023-04-19T01:30:43;98354.00;;;9.12;79.07
22181;BME280;11256;50.830;12.834;2023-04-19T01:35:44;98352.59;;;9.10;79.02
22181;BME280;11256;50.830;12.834;2023-04-19T01:40:44;98338.50;;;9.08;79.03
22181;BME280;11256;50.830;12.834;2023-04-19T01:45:44;98348.81;;;9.11;78.96
22181;BME280;11256;50.830;12.834;2023-04-19T01:50:45;98351.53;;;9.11;78.78
22181;BME280;11256;50.830;12.834;2023-04-19T01:55:46;98335.25;;;9.06;79.05
22181;BME280;11256;50.830;12.834;2023-04-19T02:00:47;98343.41;;;9.11;79.00
22181;BME280;11256;50.830;12.834;2023-04-19T02:05:47;98336.81;;;9.02;78.63
22181;BME280;11256;50.830;12.834;2023-04-19T02:10:47;98317.59;;;8.98;78.70
22181;BME280;11256;50.830;12.834;2023-04-19T02:15:48;98334.44;;;9.05;78.68
22181;BME280;11256;50.830;12.834;2023-04-19T02:20:48;98328.78;;;9.07;79.02
22181;BME280;11256;50.830;12.834;2023-04-19T02:25:50;98328.22;;;9.05;78.58
22181;BME280;11256;50.830;12.834;2023-04-19T02:30:50;98328.72;;;9.02;78.64
22181;BME280;11256;50.830;12.834;2023-04-19T02:35:51;98317.31;;;8.95;78.39
22181;BME280;11256;50.830;12.834;2023-04-19T02:40:51;98321.13;;;8.99;78.48
22181;BME280;11256;50.830;12.834;2023-04-19T02:45:51;98302.09;;;8.89;78.07
22181;BME280;11256;50.830;12.834;2023-04-19T02:50:54;98313.03;;;8.99;78.29
22181;BME280;11256;50.830;12.834;2023-04-19T02:55:54;98311.38;;;8.98;78.07
22181;BME280;11256;50.830;12.834;2023-04-19T03:00:55;98298.63;;;8.93;78.01
22181;BME280;11256;50.830;12.834;2023-04-19T03:05:56;98301.09;;;8.95;77.92
22181;BME280;11256;50.830;12.834;2023-04-19T03:10:57;98297.25;;;8.91;77.76
22181;BME280;11256;50.830;12.834;2023-04-19T03:15:58;98291.59;;;8.92;77.70
22181;BME280;11256;50.830;12.834;2023-04-19T03:20:58;98279.09;;;8.86;77.43
22181;BME280;11256;50.830;12.834;2023-04-19T03:26:02;98284.25;;;8.88;77.56
22181;BME280;11256;50.830;12.834;2023-04-19T03:31:12;98289.13;;;8.91;77.62
22181;BME280;11256;50.830;12.834;2023-04-19T03:36:13;98285.13;;;8.93;77.81
22181;BME280;11256;50.830;12.834;2023-04-19T03:41:25;98272.38;;;8.89;77.24
22181;BME280;11256;50.830;12.834;2023-04-19T03:46:37;98267.56;;;8.96;77.47
22181;BME280;11256;50.830;12.834;2023-04-19T03:51:38;98276.19;;;8.93;77.06
22181;BME280;11256;50.830;12.834;2023-04-19T03:56:40;98263.13;;;8.85;76.97
22181;BME280;11256;50.830;12.834;2023-04-19T04:01:41;98262.53;;;8.78;76.96
22181;BME280;11256;50.830;12.834;2023-04-19T04:06:41;98248.34;;;8.66;77.08
22181;BME280;11256;50.830;12.834;2023-04-19T04:11:42;98257.88;;;8.73;76.88
22181;BME280;11256;50.830;12.834;2023-04-19T04:16:43;98256.00;;;8.74;77.07
22181;BME280;11256;50.830;12.834;2023-04-19T04:21:43;98257.63;;;8.75;77.09
22181;BME280;11256;50.830;12.834;2023-04-19T04:26:44;98251.63;;;8.68;76.98
22181;BME280;11256;50.830;12.834;2023-04-19T04:31:54;98260.28;;;8.70;76.49
22181;BME280;11256;50.830;12.834;2023-04-19T04:37:00;98255.34;;;8.62;76.66
22181;BME280;11256;50.830;12.834;2023-04-19T04:42:02;98252.06;;;8.60;76.41
22181;BME280;11256;50.830;12.834;2023-04-19T04:47:03;98255.28;;;8.57;76.55
22181;BME280;11256;50.830;12.834;2023-04-19T04:52:08;98262.59;;;8.61;76.27
22181;BME280;11256;50.830;12.834;2023-04-19T04:57:16;98249.25;;;8.50;76.06
22181;BME280;11256;50.830;12.834;2023-04-19T05:02:17;98257.63;;;8.48;76.51
22181;BME280;11256;50.830;12.834;2023-04-19T05:07:18;98247.47;;;8.34;76.49
22181;BME280;11256;50.830;12.834;2023-04-19T05:12:19;98254.41;;;8.30;76.50
22181;BME280;11256;50.830;12.834;2023-04-19T05:17:20;98264.16;;;8.31;76.26
22181;BME280;11256;50.830;12.834;2023-04-19T05:22:20;98269.31;;;8.32;76.38
22181;BME280;11256;50.830;12.834;2023-04-19T05:27:20;98260.81;;;8.24;76.16
22181;BME280;11256;50.830;12.834;2023-04-19T05:32:21;98263.78;;;8.22;76.42
22181;BME280;11256;50.830;12.834;2023-04-19T05:37:29;98247.66;;;8.11;76.54
22181;BME280;11256;50.830;12.834;2023-04-19T05:42:30;98259.09;;;8.18;76.28
22181;BME280;11256;50.830;12.834;2023-04-19T05:47:30;98254.28;;;8.20;76.02
22181;BME280;11256;50.830;12.834;2023-04-19T05:52:48;98265.22;;;8.13;75.89
22181;BME280;11256;50.830;12.834;2023-04-19T05:57:49;98261.16;;;8.11;75.97
22181;BME280;11256;50.830;12.834;2023-04-19T06:02:49;98251.56;;;7.98;76.19
22181;BME280;11256;50.830;12.834;2023-04-19T06:07:49;98258.91;;;8.03;75.95
22181;BME280;11256;50.830;12.834;2023-04-19T06:12:50;98264.78;;;8.00;75.89
22181;BME280;11256;50.830;12.834;2023-04-19T06:17:51;98256.97;;;7.98;75.97
22181;BME280;11256;50.830;12.834;2023-04-19T06:22:51;98265.28;;;7.97;75.73
22181;BME280;11256;50.830;12.834;2023-04-19T06:27:51;98269.88;;;7.96;75.92
22181;BME280;11256;50.830;12.834;2023-04-19T06:32:52;98263.22;;;8.04;76.01
22181;BME280;11256;50.830;12.834;2023-04-19T06:37:52;98265.13;;;8.03;75.83
22181;BME280;11256;50.830;12.834;2023-04-19T06:42:52;98278.34;;;8.21;76.08
22181;BME280;11256;50.830;12.834;2023-04-19T06:47:52;98266.66;;;8.37;74.75
22181;BME280;11256;50.830;12.834;2023-04-19T06:52:54;98269.94;;;8.66;76.41
22181;BME280;11256;50.830;12.834;2023-04-19T06:57:54;98259.94;;;8.88;76.08
22181;BME280;11256;50.830;12.834;2023-04-19T07:02:55;98255.94;;;8.95;75.29
22181;BME280;11256;50.830;12.834;2023-04-19T07:07:55;98259.19;;;9.24;75.68
22181;BME280;11256;50.830;12.834;2023-04-19T07:12:56;98257.31;;;9.61;75.47
22181;BME280;11256;50.830;12.834;2023-04-19T07:17:56;98261.22;;;9.80;73.58
22181;BME280;11256;50.830;12.834;2023-04-19T07:22:59;98254.78;;;9.86;72.07
22181;BME280;11256;50.830;12.834;2023-04-19T07:28:00;98252.69;;;9.98;70.93
22181;BME280;11256;50.830;12.834;2023-04-19T07:33:00;98258.47;;;10.11;71.72
22181;BME280;11256;50.830;12.834;2023-04-19T07:38:03;98247.41;;;10.28;71.75
22181;BME280;11256;50.830;12.834;2023-04-19T07:43:03;98245.09;;;10.56;69.62
22181;BME280;11256;50.830;12.834;2023-04-19T07:48:04;98250.38;;;11.43;67.48
22181;BME280;11256;50.830;12.834;2023-04-19T07:53:04;98255.38;;;12.39;66.03
22181;BME280;11256;50.830;12.834;2023-04-19T07:58:05;98252.50;;;13.18;66.07
22181;BME280;11256;50.830;12.834;2023-04-19T08:03:05;98246.09;;;13.71;62.36
22181;BME280;11256;50.830;12.834;2023-04-19T08:08:05;98253.81;;;14.63;60.75
22181;BME280;11256;50.830;12.834;2023-04-19T08:13:06;98234.09;;;15.45;60.50
22181;BME280;11256;50.830;12.834;2023-04-19T08:18:06;98241.16;;;15.78;55.29
22181;BME280;11256;50.830;12.834;2023-04-19T08:23:07;98227.06;;;16.30;55.20
22181;BME280;11256;50.830;12.834;2023-04-19T08:28:08;98237.63;;;17.70;54.25
22181;BME280;11256;50.830;12.834;2023-04-19T08:33:08;98238.59;;;18.65;52.62
22181;BME280;11256;50.830;12.834;2023-04-19T08:38:09;98235.78;;;18.96;51.71
22181;BME280;11256;50.830;12.834;2023-04-19T08:43:10;98231.50;;;18.73;50.86
22181;BME280;11256;50.830;12.834;2023-04-19T08:48:10;98222.38;;;19.62;48.49
22181;BME280;11256;50.830;12.834;2023-04-19T08:53:11;98212.88;;;20.60;48.61
22181;BME280;11256;50.830;12.834;2023-04-19T08:58:11;98211.53;;;19.83;46.16
22181;BME280;11256;50.830;12.834;2023-04-19T09:03:12;98201.41;;;19.41;43.35
22181;BME280;11256;50.830;12.834;2023-04-19T09:08:29;98187.19;;;20.48;45.53
22181;BME280;11256;50.830;12.834;2023-04-19T09:13:31;98188.03;;;20.40;44.02
22181;BME280;11256;50.830;12.834;2023-04-19T09:18:31;98175.03;;;20.49;43.56
22181;BME280;11256;50.830;12.834;2023-04-19T09:23:31;98165.09;;;21.06;42.93
22181;BME280;11256;50.830;12.834;2023-04-19T09:28:32;98161.78;;;20.42;42.42
22181;BME280;11256;50.830;12.834;2023-04-19T09:33:34;98142.66;;;20.66;41.94
22181;BME280;11256;50.830;12.834;2023-04-19T09:38:48;98149.47;;;20.11;42.19
22181;BME280;11256;50.830;12.834;2023-04-19T09:43:49;98149.28;;;20.16;41.38
22181;BME280;11256;50.830;12.834;2023-04-19T09:48:49;98154.00;;;19.44;40.01
22181;BME280;11256;50.830;12.834;2023-04-19T09:53:50;98138.16;;;19.41;40.51
22181;BME280;11256;50.830;12.834;2023-04-19T09:58:51;98142.53;;;19.33;41.29
22181;BME280;11256;50.830;12.834;2023-04-19T10:03:51;98137.66;;;18.88;42.16
22181;BME280;11256;50.830;12.834;2023-04-19T10:08:53;98127.13;;;18.00;42.21
22181;BME280;11256;50.830;12.834;2023-04-19T10:13:58;98117.97;;;17.74;42.74
22181;BME280;11256;50.830;12.834;2023-04-19T10:19:01;98117.03;;;17.48;43.39
22181;BME280;11256;50.830;12.834;2023-04-19T10:24:03;98112.56;;;17.30;45.21
22181;BME280;11256;50.830;12.834;2023-04-19T10:29:04;98109.47;;;17.01;45.28
22181;BME280;11256;50.830;12.834;2023-04-19T10:34:04;98103.47;;;16.77;45.86
22181;BME280;11256;50.830;12.834;2023-04-19T10:39:41;98096.25;;;16.81;46.45
22181;BME280;11256;50.830;12.834;2023-04-19T10:44:41;98077.97;;;16.68;47.41
22181;BME280;11256;50.830;12.834;2023-04-19T10:49:45;98081.59;;;16.63;48.20
22181;BME280;11256;50.830;12.834;2023-04-19T10:54:54;98064.63;;;16.53;47.25
22181;BME280;11256;50.830;12.834;2023-04-19T11:00:20;98076.00;;;16.33;46.95
22181;BME280;11256;50.830;12.834;2023-04-19T11:05:21;98064.25;;;16.32;48.14
22181;BME280;11256;50.830;12.834;2023-04-19T11:10:29;98048.81;;;16.36;47.92
22181;BME280;11256;50.830;12.834;2023-04-19T11:15:32;98053.72;;;16.26;47.15
22181;BME280;11256;50.830;12.834;2023-04-19T11:20:32;98040.38;;;16.11;48.71
22181;BME280;11256;50.830;12.834;2023-04-19T11:25:32;98051.31;;;16.11;48.31
22181;BME280;11256;50.830;12.834;2023-04-19T11:30:33;98040.84;;;16.04;47.47
22181;BME280;11256;50.830;12.834;2023-04-19T11:35:33;98035.47;;;15.86;48.32
22181;BME280;11256;50.830;12.834;2023-04-19T11:40:34;98018.53;;;15.30;47.76
22181;BME280;11256;50.830;12.834;2023-04-19T11:45:37;98029.06;;;15.23;47.52
22181;BME280;11256;50.830;12.834;2023-04-19T11:50:40;98022.44;;;14.97;45.57
22181;BME280;11256;50.830;12.834;2023-04-19T11:55:41;98018.19;;;14.59;44.94
22181;BME280;11256;50.830;12.834;2023-04-19T12:00:45;98012.31;;;14.15;45.81
22181;BME280;11256;50.830;12.834;2023-04-19T12:05:56;97993.63;;;14.59;49.57
22181;BME280;11256;50.830;12.834;2023-04-19T12:10:57;98004.38;;;14.69;51.46
22181;BME280;11256;50.830;12.834;2023-04-19T12:15:58;97984.72;;;14.85;49.78
22181;BME280;11256;50.830;12.834;2023-04-19T12:20:58;97992.63;;;14.87;50.08
22181;BME280;11256;50.830;12.834;2023-04-19T12:26:03;97985.34;;;14.96;50.05
22181;BME280;11256;50.830;12.834;2023-04-19T12:31:04;97981.84;;;15.09;48.51
22181;BME280;11256;50.830;12.834;2023-04-19T12:36:07;97964.34;;;14.96;47.93
22181;BME280;11256;50.830;12.834;2023-04-19T12:41:08;97974.66;;;15.13;48.48
22181;BME280;11256;50.830;12.834;2023-04-19T12:46:08;97968.19;;;15.09;48.55
22181;BME280;11256;50.830;12.834;2023-04-19T12:51:08;97968.97;;;15.09;47.60
22181;BME280;11256;50.830;12.834;2023-04-19T12:56:09;97975.66;;;15.03;48.34
22181;BME280;11256;50.830;12.834;2023-04-19T13:01:11;97955.03;;;14.97;48.31
22181;BME280;11256;50.830;12.834;2023-04-19T13:06:11;97969.81;;;15.10;48.49
22181;BME280;11256;50.830;12.834;2023-04-19T13:11:14;97965.13;;;14.97;48.43
22181;BME280;11256;50.830;12.834;2023-04-19T13:16:16;97947.88;;;15.01;47.99
22181;BME280;11256;50.830;12.834;2023-04-19T13:21:17;97958.84;;;14.83;46.29
22181;BME280;11256;50.830;12.834;2023-04-19T13:26:17;97956.91;;;13.22;44.89
22181;BME280;11256;50.830;12.834;2023-04-19T13:31:17;97954.78;;;13.19;47.32
22181;BME280;11256;50.830;12.834;2023-04-19T13:36:18;97962.66;;;12.97;49.21
22181;BME280;11256;50.830;12.834;2023-04-19T13:41:19;97940.75;;;13.07;52.13
22181;BME280;11256;50.830;12.834;2023-04-19T13:46:20;97958.53;;;13.23;53.34
22181;BME280;11256;50.830;12.834;2023-04-19T13:51:20;97957.72;;;13.46;54.53
22181;BME280;11256;50.830;12.834;2023-04-19T13:56:20;97940.66;;;13.59;54.51
22181;BME280;11256;50.830;12.834;2023-04-19T14:01:21;97920.84;;;13.72;53.67
22181;BME280;11256;50.830;12.834;2023-04-19T14:06:21;97928.06;;;14.00;54.03
22181;BME280;11256;50.830;12.834;2023-04-19T14:11:24;97904.47;;;14.09;53.98
22181;BME280;11256;50.830;12.834;2023-04-19T14:16:24;97919.91;;;14.32;53.95
22181;BME280;11256;50.830;12.834;2023-04-19T14:21:25;97920.97;;;14.49;54.79
22181;BME280;11256;50.830;12.834;2023-04-19T14:26:25;97912.13;;;14.57;55.31
22181;BME280;11256;50.830;12.834;2023-04-19T14:31:26;97904.66;;;14.63;55.66
22181;BME280;11256;50.830;12.834;2023-04-19T14:36:26;97896.97;;;14.65;55.68
22181;BME280;11256;50.830;12.834;2023-04-19T14:41:26;97893.50;;;14.46;55.30
22181;BME280;11256;50.830;12.834;2023-04-19T14:46:27;97900.53;;;14.33;54.31
22181;BME280;11256;50.830;12.834;2023-04-19T14:51:28;97890.72;;;14.00;53.87
22181;BME280;11256;50.830;12.834;2023-04-19T14:56:28;97895.31;;;13.86;54.23
22181;BME280;11256;50.830;12.834;2023-04-19T15:01:29;97889.88;;;13.86;51.76
22181;BME280;11256;50.830;12.834;2023-04-19T15:06:30;97895.81;;;13.33;48.48
22181;BME280;11256;50.830;12.834;2023-04-19T15:11:30;97919.50;;;12.00;51.37
22181;BME280;11256;50.830;12.834;2023-04-19T15:16:31;97929.00;;;11.54;54.23
22181;BME280;11256;50.830;12.834;2023-04-19T15:21:31;97946.91;;;12.03;56.99
22181;BME280;11256;50.830;12.834;2023-04-19T15:26:33;97937.13;;;11.64;54.06
22181;BME280;11256;50.830;12.834;2023-04-19T15:31:34;97953.00;;;11.32;55.28
22181;BME280;11256;50.830;12.834;2023-04-19T15:36:34;97927.78;;;10.58;56.44
22181;BME280;11256;50.830;12.834;2023-04-19T15:41:35;97930.75;;;10.66;59.00
22181;BME280;11256;50.830;12.834;2023-04-19T15:46:35;97926.69;;;10.54;59.10
22181;BME280;11256;50.830;12.834;2023-04-19T15:51:35;97918.28;;;10.65;61.26
22181;BME280;11256;50.830;12.834;2023-04-19T15:56:37;97929.38;;;10.74;61.33
22181;BME280;11256;50.830;12.834;2023-04-19T16:01:38;97913.72;;;9.96;60.28
22181;BME280;11256;50.830;12.834;2023-04-19T16:06:38;97947.03;;;10.41;60.98
22181;BME280;11256;50.830;12.834;2023-04-19T16:11:38;97941.06;;;10.49;61.45
22181;BME280;11256;50.830;12.834;2023-04-19T16:16:38;97924.53;;;10.51;61.03
22181;BME280;11256;50.830;12.834;2023-04-19T16:21:39;97939.41;;;10.63;61.25
22181;BME280;11256;50.830;12.834;2023-04-19T16:26:39;97923.97;;;10.69;61.31
22181;BME280;11256;50.830;12.834;2023-04-19T16:31:39;97929.63;;;10.82;60.90
22181;BME280;11256;50.830;12.834;2023-04-19T16:36:40;97917.94;;;10.82;61.30
22181;BME280;11256;50.830;12.834;2023-04-19T16:41:43;97904.13;;;10.83;60.62
22181;BME280;11256;50.830;12.834;2023-04-19T16:46:44;97928.31;;;10.55;59.99
22181;BME280;11256;50.830;12.834;2023-04-19T16:51:44;97932.16;;;10.14;60.51
22181;BME280;11256;50.830;12.834;2023-04-19T16:56:45;97926.75;;;10.04;60.35
22181;BME280;11256;50.830;12.834;2023-04-19T17:01:45;97917.22;;;9.81;60.80
22181;BME280;11256;50.830;12.834;2023-04-19T17:06:45;97911.81;;;9.81;60.71
22181;BME280;11256;50.830;12.834;2023-04-19T17:11:46;97911.50;;;9.58;61.42
22181;BME280;11256;50.830;12.834;2023-04-19T17:16:46;97902.84;;;9.46;61.90
22181;BME280;11256;50.830;12.834;2023-04-19T17:21:46;97910.66;;;9.37;61.97
22181;BME280;11256;50.830;12.834;2023-04-19T17:26:47;97884.59;;;8.91;62.47
22181;BME280;11256;50.830;12.834;2023-04-19T17:31:47;97912.34;;;8.82;63.55
22181;BME280;11256;50.830;12.834;2023-04-19T17:36:47;97913.41;;;8.76;63.27
22181;BME280;11256;50.830;12.834;2023-04-19T17:41:48;97894.44;;;8.61;63.89
22181;BME280;11256;50.830;12.834;2023-04-19T17:46:48;97897.34;;;8.49;63.32
22181;BME280;11256;50.830;12.834;2023-04-19T17:51:48;97901.19;;;8.58;64.32
22181;BME280;11256;50.830;12.834;2023-04-19T17:56:49;97904.38;;;8.50;64.07
22181;BME280;11256;50.830;12.834;2023-04-19T18:01:51;97910.00;;;8.44;64.15
22181;BME280;11256;50.830;12.834;2023-04-19T18:06:52;97908.97;;;8.55;64.79
22181;BME280;11256;50.830;12.834;2023-04-19T18:11:52;97904.13;;;8.52;64.95
22181;BME280;11256;50.830;12.834;2023-04-19T18:16:54;97902.78;;;8.54;64.88
22181;BME280;11256;50.830;12.834;2023-04-19T18:21:54;97904.44;;;8.60;64.84
22181;BME280;11256;50.830;12.834;2023-04-19T18:26:55;97906.06;;;8.61;65.02
22181;BME280;11256;50.830;12.834;2023-04-19T18:31:57;97911.47;;;8.61;64.62
22181;BME280;11256;50.830;12.834;2023-04-19T18:36:59;97896.03;;;8.52;65.02
22181;BME280;11256;50.830;12.834;2023-04-19T18:42:00;97905.50;;;8.59;65.04
22181;BME280;11256;50.830;12.834;2023-04-19T18:47:01;97908.50;;;8.63;64.83
22181;BME280;11256;50.830;12.834;2023-04-19T18:52:02;97906.88;;;8.62;65.05
22181;BME280;11256;50.830;12.834;2023-04-19T18:57:02;97903.59;;;8.60;64.87
22181;BME280;11256;50.830;12.834;2023-04-19T19:02:02;97902.00;;;8.59;64.87
22181;BME280;11256;50.830;12.834;2023-04-19T19:07:03;97899.25;;;8.54;64.31
22181;BME280;11256;50.830;12.834;2023-04-19T19:12:03;97894.94;;;8.53;64.58
22181;BME280;11256;50.830;12.834;2023-04-19T19:17:04;97896.53;;;8.49;64.63
22181;BME280;11256;50.830;12.834;2023-04-19T19:22:05;97908.44;;;8.53;64.94
22181;BME280;11256;50.830;12.834;2023-04-19T19:27:06;97903.00;;;8.48;64.82
22181;BME280;11256;50.830;12.834;2023-04-19T19:32:06;97897.59;;;8.48;64.12
22181;BME280;11256;50.830;12.834;2023-04-19T19:37:08;97880.28;;;8.39;64.12
22181;BME280;11256;50.830;12.834;2023-04-19T19:42:10;97872.44;;;8.37;64.50
22181;BME280;11256;50.830;12.834;2023-04-19T19:47:11;97886.78;;;8.43;64.58
22181;BME280;11256;50.830;12.834;2023-04-19T19:52:11;97881.91;;;8.40;64.58
22181;BME280;11256;50.830;12.834;2023-04-19T19:57:12;97881.38;;;8.43;64.27
22181;BME280;11256;50.830;12.834;2023-04-19T20:02:12;97877.31;;;8.40;64.35
22181;BME280;11256;50.830;12.834;2023-04-19T20:07:12;97876.50;;;8.40;64.31
22181;BME280;11256;50.830;12.834;2023-04-19T20:12:13;97872.44;;;8.37;64.02
22181;BME280;11256;50.830;12.834;2023-04-19T20:17:13;97856.47;;;8.31;64.02
22181;BME280;11256;50.830;12.834;2023-04-19T20:22:13;97862.41;;;8.33;63.97
22181;BME280;11256;50.830;12.834;2023-04-19T20:27:13;97853.22;;;8.29;64.21
22181;BME280;11256;50.830;12.834;2023-04-19T20:32:14;97841.03;;;8.21;64.14
22181;BME280;11256;50.830;12.834;2023-04-19T20:37:14;97852.38;;;8.23;64.07
22181;BME280;11256;50.830;12.834;2023-04-19T20:42:16;97855.63;;;8.20;64.15
22181;BME280;11256;50.830;12.834;2023-04-19T20:47:17;97838.50;;;8.10;64.36
22181;BME280;11256;50.830;12.834;2023-04-19T20:52:17;97846.06;;;8.08;64.38
22181;BME280;11256;50.830;12.834;2023-04-19T20:57:17;97859.34;;;8.14;64.32
22181;BME280;11256;50.830;12.834;2023-04-19T21:02:18;97859.59;;;8.13;64.44
22181;BME280;11256;50.830;12.834;2023-04-19T21:07:18;97849.25;;;8.05;64.39
22181;BME280;11256;50.830;12.834;2023-04-19T21:12:19;97863.03;;;8.08;64.14
22181;BME280;11256;50.830;12.834;2023-04-19T21:17:19;97866.03;;;8.07;64.49
22181;BME280;11256;50.830;12.834;2023-04-19T21:22:20;97841.91;;;7.95;64.58
22181;BME280;11256;50.830;12.834;2023-04-19T21:27:20;97849.19;;;7.95;64.47
22181;BME280;11256;50.830;12.834;2023-04-19T21:32:21;97854.13;;;8.03;64.61
22181;BME280;11256;50.830;12.834;2023-04-19T21:37:21;97851.38;;;7.98;64.93
22181;BME280;11256;50.830;12.834;2023-04-19T21:42:22;97840.81;;;7.91;64.35
22181;BME280;11256;50.830;12.834;2023-04-19T21:47:22;97836.22;;;7.92;64.60
22181;BME280;11256;50.830;12.834;2023-04-19T21:52:22;97853.78;;;7.94;64.61
22181;BME280;11256;50.830;12.834;2023-04-19T21:57:23;97855.66;;;7.94;64.43
22181;BME280;11256;50.830;12.834;2023-04-19T22:02:24;97853.22;;;7.92;64.73
22181;BME280;11256;50.830;12.834;2023-04-19T22:07:25;97850.81;;;7.91;64.53
22181;BME280;11256;50.830;12.834;2023-04-19T22:12:29;97846.47;;;7.90;64.30
22181;BME280;11256;50.830;12.834;2023-04-19T22:17:30;97841.34;;;7.88;64.78
22181;BME280;11256;50.830;12.834;2023-04-19T22:22:31;97846.13;;;7.81;64.46
22181;BME280;11256;50.830;12.834;2023-04-19T22:27:31;97835.88;;;7.78;64.51
22181;BME280;11256;50.830;12.834;2023-04-19T22:32:32;97845.84;;;7.78;64.43
22181;BME280;11256;50.830;12.834;2023-04-19T22:37:32;97830.69;;;7.72;64.36
22181;BME280;11256;50.830;12.834;2023-04-19T22:42:32;97836.69;;;7.79;64.23
22181;BME280;11256;50.830;12.834;2023-04-19T22:47:33;97829.06;;;7.71;64.44
22181;BME280;11256;50.830;12.834;2023-04-19T22:52:33;97828.78;;;7.67;64.30
22181;BME280;11256;50.830;12.834;2023-04-19T22:57:34;97823.38;;;7.67;64.40
22181;BME280;11256;50.830;12.834;2023-04-19T23:02:34;97821.72;;;7.61;64.38
22181;BME280;11256;50.830;12.834;2023-04-19T23:07:36;97806.28;;;7.57;64.46
22181;BME280;11256;50.830;12.834;2023-04-19T23:12:39;97816.31;;;7.61;64.63
22181;BME280;11256;50.830;12.834;2023-04-19T23:17:39;97818.44;;;7.59;64.64
22181;BME280;11256;50.830;12.834;2023-04-19T23:22:39;97817.91;;;7.57;64.62
22181;BME280;11256;50.830;12.834;2023-04-19T23:27:40;97807.31;;;7.51;64.69
22181;BME280;11256;50.830;12.834;2023-04-19T23:32:40;97803.59;;;7.52;64.70
22181;BME280;11256;50.830;12.834;2023-04-19T23:37:40;97809.22;;;7.50;64.61
22181;BME280;11256;50.830;12.834;2023-04-19T23:42:41;97800.22;;;7.40;65.05
22181;BME280;11256;50.830;12.834;2023-04-19T23:47:41;97804.00;;;7.39;65.09
22181;BME280;11256;50.830;12.834;2023-04-19T23:52:41;97804.28;;;7.42;65.38
22181;BME280;11256;50.830;12.834;2023-04-19T23:57:42;97800.22;;;7.40;64.93
